createdAt,value
2018-11-21T00:00:44.612Z,101536.44
2018-11-21T00:03:11.933Z,101545.53
2018-11-21T00:05:39.124Z,101557.31
2018-11-21T00:08:06.276Z,101564.73
2018-11-21T00:10:33.458Z,101571.33
2018-11-21T00:13:00.663Z,101579.44
2018-11-21T00:15:27.790Z,101577.28
2018-11-21T00:17:54.909Z,101580.88
2018-11-21T00:20:22.090Z,101594.39
2018-11-21T00:22:49.247Z,101584.31
2018-11-21T00:25:16.386Z,101585.61
2018-11-21T00:27:43.528Z,101580.28
2018-11-21T00:30:12.593Z,101579.97
2018-11-21T00:32:39.744Z,101585.08
2018-11-21T00:35:07.947Z,101593.27
2018-11-21T00:37:35.135Z,101585.61
2018-11-21T00:40:02.469Z,101584.88
2018-11-21T00:42:30.685Z,101578.19
2018-11-21T00:44:57.802Z,101582.21
2018-11-21T00:47:24.958Z,101573.56
2018-11-21T00:49:52.148Z,101573.92
2018-11-21T00:52:19.244Z,101573.92
2018-11-21T00:54:46.389Z,101571.23
2018-11-21T00:57:13.531Z,101577.64
2018-11-21T00:59:40.661Z,101577.98
2018-11-21T01:02:07.807Z,101580.32
2018-11-21T01:04:34.993Z,101576.56
2018-11-21T01:07:02.468Z,101589.77
2018-11-21T01:09:29.790Z,101584.41
2018-11-21T01:11:56.968Z,101589.11
2018-11-21T01:14:24.211Z,101582.91
2018-11-21T01:16:51.322Z,101581.29
2018-11-21T01:19:18.449Z,101581.69
2018-11-21T01:21:45.680Z,101577.03
2018-11-21T01:24:12.831Z,101585.63
2018-11-21T01:26:39.948Z,101588.02
2018-11-21T01:29:07.127Z,101592.55
2018-11-21T01:31:34.287Z,101594.27
2018-11-21T01:34:01.479Z,101590.34
2018-11-21T01:36:28.663Z,101599.72
2018-11-21T01:38:55.768Z,101610.38
2018-11-21T01:41:22.904Z,101598.42
2018-11-21T01:43:50.123Z,101589.00
2018-11-21T01:46:17.250Z,101595.13
2018-11-21T01:48:44.376Z,101596.42
2018-11-21T01:51:11.527Z,101604.52
2018-11-21T01:53:38.631Z,101601.50
2018-11-21T01:56:05.759Z,101599.30
2018-11-21T01:58:32.979Z,101596.22
2018-11-21T02:01:00.077Z,101597.89
2018-11-21T02:03:27.202Z,101592.09
2018-11-21T02:05:54.362Z,101595.61
2018-11-21T02:08:21.534Z,101594.95
2018-11-21T02:10:48.708Z,101608.58
2018-11-21T02:13:15.843Z,101604.05
2018-11-21T02:15:43.037Z,101609.25
2018-11-21T02:18:10.661Z,101608.47
2018-11-21T02:20:37.793Z,101604.70
2018-11-21T02:23:07.909Z,101605.78
2018-11-21T02:25:35.048Z,101616.55
2018-11-21T02:28:02.190Z,101623.67
2018-11-21T02:30:31.223Z,101618.64
2018-11-21T02:32:58.311Z,101642.76
2018-11-21T02:35:25.540Z,101638.62
2018-11-21T02:37:52.938Z,101648.09
2018-11-21T02:40:20.068Z,101641.72
2018-11-21T02:42:47.179Z,101642.66
2018-11-21T02:45:14.281Z,101636.93
2018-11-21T02:47:41.408Z,101629.41
2018-11-21T02:50:08.508Z,101636.03
2018-11-21T02:52:35.631Z,101633.03
2018-11-21T02:55:02.780Z,101632.12
2018-11-21T02:57:33.634Z,101648.47
2018-11-21T03:00:03.249Z,101646.13
2018-11-21T03:19:29.406Z,101680.77
2018-11-21T03:21:56.504Z,101674.78
2018-11-21T03:24:23.620Z,101676.88
2018-11-21T03:26:51.475Z,101676.07
2018-11-21T03:29:18.558Z,101676.72
2018-11-21T03:31:45.679Z,101689.19
2018-11-21T03:34:12.827Z,101687.35
2018-11-21T03:36:46.485Z,101693.73
2018-11-21T03:39:13.585Z,101688.02
2018-11-21T03:41:40.722Z,101696.70
2018-11-21T03:44:07.802Z,101690.58
2018-11-21T03:46:34.951Z,101688.73
2018-11-21T03:49:02.124Z,101687.80
2018-11-21T03:51:29.214Z,101689.48
2018-11-21T03:53:56.296Z,101686.50
2018-11-21T03:56:23.457Z,101691.80
2018-11-21T03:58:50.559Z,101694.25
2018-11-21T04:01:17.688Z,101711.34
2018-11-21T04:03:44.909Z,101698.64
2018-11-21T04:06:11.990Z,101701.26
2018-11-21T04:08:42.666Z,101699.66
2018-11-21T04:11:06.258Z,101698.13
2018-11-21T04:13:33.377Z,101689.82
2018-11-21T04:16:00.496Z,101698.50
2018-11-21T04:18:27.595Z,101711.06
2018-11-21T04:20:54.783Z,101710.00
2018-11-21T04:23:21.947Z,101709.72
2018-11-21T04:25:49.076Z,101724.68
2018-11-21T04:28:16.234Z,101728.05
2018-11-21T04:30:43.376Z,101727.89
2018-11-21T04:33:10.516Z,101725.04
2018-11-21T04:35:37.632Z,101732.33
2018-11-21T04:38:04.838Z,101729.19
2018-11-21T04:40:34.243Z,101737.91
2018-11-21T04:43:01.356Z,101729.05
2018-11-21T04:45:28.533Z,101738.53
2018-11-21T04:47:56.018Z,101742.47
2018-11-21T04:50:22.819Z,101745.70
2018-11-21T04:52:49.951Z,101756.95
2018-11-21T04:55:17.085Z,101758.00
2018-11-21T04:57:44.261Z,101769.53
2018-11-21T05:00:11.543Z,101771.48
2018-11-21T05:02:38.764Z,101761.34
2018-11-21T05:05:07.237Z,101767.44
2018-11-21T05:07:34.355Z,101766.91
2018-11-21T05:10:01.499Z,101776.55
2018-11-21T05:12:28.700Z,101772.52
2018-11-21T05:14:55.835Z,101769.35
2018-11-21T05:17:22.951Z,101782.49
2018-11-21T05:19:50.100Z,101787.55
2018-11-21T05:22:17.300Z,101781.20
2018-11-21T05:24:44.578Z,101783.55
2018-11-21T05:27:11.693Z,101785.45
2018-11-21T05:29:38.823Z,101796.12
2018-11-21T05:32:05.991Z,101784.87
2018-11-21T05:34:33.174Z,101798.23
2018-11-21T05:37:00.386Z,101784.31
2018-11-21T05:39:27.491Z,101799.41
2018-11-21T05:41:54.685Z,101803.05
2018-11-21T05:44:21.798Z,101798.08
2018-11-21T05:46:53.570Z,101801.48
2018-11-21T05:49:16.100Z,101798.98
2018-11-21T05:51:43.210Z,101803.80
2018-11-21T05:54:10.340Z,101811.48
2018-11-21T05:56:37.502Z,101817.16
2018-11-21T05:59:04.721Z,101834.29
2018-11-21T06:01:31.853Z,101833.52
2018-11-21T06:03:59.006Z,101834.14
2018-11-21T06:06:26.133Z,101837.11
2018-11-21T06:08:53.297Z,101859.95
2018-11-21T06:11:20.412Z,101852.78
2018-11-21T06:13:47.547Z,101848.44
2018-11-21T06:16:14.650Z,101853.35
2018-11-21T06:18:41.778Z,101856.85
2018-11-21T06:21:08.903Z,101862.70
2018-11-21T06:23:36.081Z,101845.86
2018-11-21T06:26:03.315Z,101856.72
2018-11-21T06:28:30.463Z,101855.28
2018-11-21T06:30:57.612Z,101856.59
2018-11-21T06:33:24.659Z,101861.16
2018-11-21T06:35:51.817Z,101864.89
2018-11-21T06:38:18.986Z,101873.56
2018-11-21T06:40:46.085Z,101885.50
2018-11-21T06:43:13.225Z,101886.30
2018-11-21T06:45:40.323Z,101889.14
2018-11-21T06:48:07.443Z,101898.37
2018-11-21T06:50:34.591Z,101905.78
2018-11-21T06:53:01.709Z,101903.82
2018-11-21T06:55:31.748Z,101900.19
2018-11-21T06:57:58.849Z,101902.30
2018-11-21T07:00:25.941Z,101908.36
2018-11-21T07:02:53.060Z,101910.56
2018-11-21T07:05:20.190Z,101911.51
2018-11-21T07:07:47.269Z,101911.00
2018-11-21T07:10:15.155Z,101905.66
2018-11-21T07:12:42.990Z,101912.27
2018-11-21T07:15:10.186Z,101909.27
2018-11-21T07:17:37.736Z,101908.27
2018-11-21T07:20:09.996Z,101910.85
2018-11-21T07:22:37.530Z,101910.59
2018-11-21T07:25:09.632Z,101922.57
2018-11-21T07:27:37.077Z,101919.93
2018-11-21T07:30:05.736Z,101924.20
2018-11-21T07:32:32.941Z,101918.52
2018-11-21T07:35:00.117Z,101928.02
2018-11-21T07:37:27.349Z,101928.53
2018-11-21T07:39:54.567Z,101939.95
2018-11-21T07:42:21.786Z,101937.86
2018-11-21T07:44:49.177Z,101936.32
2018-11-21T07:47:16.320Z,101944.10
2018-11-21T07:49:43.612Z,101940.20
2018-11-21T07:52:10.848Z,101942.30
2018-11-21T07:54:37.991Z,101935.90
2018-11-21T07:57:29.642Z,101937.98
2018-11-21T08:01:02.015Z,101942.27
2018-11-21T08:03:31.256Z,101952.27
2018-11-21T08:06:17.925Z,101956.67
2018-11-21T08:09:23.027Z,101950.91
2018-11-21T08:12:21.940Z,101959.38
2018-11-21T08:15:11.362Z,101960.53
2018-11-21T08:17:56.533Z,101964.05
2018-11-21T08:20:54.929Z,101971.05
2018-11-21T08:23:41.616Z,101973.41
2018-11-21T08:26:40.602Z,101978.19
2018-11-21T08:29:07.825Z,101979.38
2018-11-21T08:31:34.965Z,101977.92
2018-11-21T08:34:02.104Z,101987.15
2018-11-21T08:36:29.271Z,101978.03
2018-11-21T08:38:56.423Z,101988.45
2018-11-21T08:41:23.603Z,101986.77
2018-11-21T08:43:50.766Z,101989.19
2018-11-21T08:46:17.920Z,101995.67
2018-11-21T08:48:45.857Z,102000.62
2018-11-21T08:51:12.976Z,102007.14
2018-11-21T08:53:40.148Z,102007.01
2018-11-21T08:56:07.321Z,102011.93
2018-11-21T08:58:34.467Z,102005.81
2018-11-21T09:01:01.611Z,102010.09
2018-11-21T09:03:28.855Z,102003.17
2018-11-21T09:05:56.017Z,102012.81
2018-11-21T09:08:23.163Z,102029.11
2018-11-21T09:10:50.290Z,102031.97
2018-11-21T09:13:17.379Z,102033.90
2018-11-21T09:15:44.658Z,102031.81
2018-11-21T09:18:11.757Z,102030.91
2018-11-21T09:20:38.884Z,102041.04
2018-11-21T09:23:06.133Z,102030.22
2018-11-21T09:25:33.305Z,102036.25
2018-11-21T09:28:00.404Z,102037.66
2018-11-21T09:30:27.515Z,102037.14
2018-11-21T09:32:55.819Z,102047.37
2018-11-21T09:35:22.962Z,102042.39
2018-11-21T09:37:50.033Z,102046.91
2018-11-21T09:40:18.720Z,102042.09
2018-11-21T09:42:47.061Z,102047.14
2018-11-21T09:45:15.425Z,102048.69
2018-11-21T09:47:42.588Z,102051.05
2018-11-21T09:50:15.046Z,102055.55
2018-11-21T09:52:42.282Z,102055.50
2018-11-21T09:55:09.596Z,102066.84
2018-11-21T09:57:36.760Z,102071.22
2018-11-21T10:00:41.660Z,102062.92
2018-11-21T10:03:11.681Z,102064.50
2018-11-21T10:05:38.940Z,102065.05
2018-11-21T10:08:36.857Z,102062.97
2018-11-21T10:11:04.283Z,102058.66
2018-11-21T10:13:31.823Z,102061.96
2018-11-21T10:16:01.048Z,102058.84
2018-11-21T10:18:27.032Z,102066.91
2018-11-21T10:20:53.361Z,102065.36
2018-11-21T10:23:20.582Z,102055.17
2018-11-21T10:25:47.752Z,102063.22
2018-11-21T10:28:14.960Z,102051.77
2018-11-21T10:30:42.184Z,102063.22
2018-11-21T10:33:09.312Z,102065.19
2018-11-21T10:35:36.440Z,102065.34
2018-11-21T10:38:03.672Z,102066.75
2018-11-21T10:40:30.923Z,102078.03
2018-11-21T10:42:57.964Z,102071.64
2018-11-21T10:45:25.087Z,102077.14
2018-11-21T10:47:52.310Z,102080.52
2018-11-21T10:50:19.405Z,102072.55
2018-11-21T10:52:46.540Z,102073.38
2018-11-21T10:55:13.694Z,102079.06
2018-11-21T10:57:40.840Z,102072.54
2018-11-21T11:00:14.005Z,102080.43
2018-11-21T11:02:59.649Z,102077.95
2018-11-21T11:05:44.931Z,102076.09
2018-11-21T11:08:30.342Z,102075.08
2018-11-21T11:11:16.324Z,102080.98
2018-11-21T11:14:15.207Z,102085.70
2018-11-21T11:17:02.570Z,102078.51
2018-11-21T11:20:01.229Z,102077.47
2018-11-21T11:22:44.588Z,102098.02
2018-11-21T11:25:37.587Z,102084.27
2018-11-21T11:28:30.175Z,102082.83
2018-11-21T11:31:05.193Z,102090.01
2018-11-21T11:33:50.351Z,102097.00
2018-11-21T11:36:35.649Z,102095.85
2018-11-21T11:39:28.105Z,102101.06
2018-11-21T11:42:13.793Z,102091.46
2018-11-21T11:45:15.849Z,102085.69
2018-11-21T11:48:06.275Z,102097.28
2018-11-21T11:51:04.793Z,102089.09
2018-11-21T11:53:58.874Z,102091.80
2018-11-21T11:56:54.628Z,102086.31
2018-11-21T11:59:41.238Z,102089.86
2018-11-21T12:02:45.496Z,102090.75
2018-11-21T12:05:38.237Z,102085.27
